VOZ182 NFFN-YSSY
Flight info
| Callsign | VOZ182 |
|---|---|
| Flight time | N/A |
| Altitude | 32000 |
| Route | ECHO MI DCT VIBEX G224 NF/N0453F340 B450 LHI H258 RIKNI N774 MARLN |
| Aircraft | B738/M-SDE2E3FGHIRWXY/LB1 |
Departure
| Time | 2026-04-29 03:13 |
|---|---|
| Airport | Nadi International Airport (NFFN) |
Arrival
| Time | N/A |
|---|---|
| Airport | Sydney Kingsford Smith International Airport (YSSY) |
| Time | Latitude | Longitude | Altitude | Speed | Heading |
|---|---|---|---|---|---|
| 2026-04-29 03:12 | -17.80000 | 177.40675 | 2680 ft | 216 kts | 218° |
| 2026-04-29 03:13 | -17.81244 | 177.39670 | 2920 ft | 234 kts | 218° |
| 2026-04-29 03:13 | -17.82552 | 177.38600 | 3373 ft | 244 kts | 218° |
| 2026-04-29 03:13 | -17.83950 | 177.37465 | 3686 ft | 261 kts | 218° |
| 2026-04-29 03:13 | -17.85404 | 177.36285 | 4399 ft | 264 kts | 218° |
| 2026-04-29 03:14 | -17.86833 | 177.35120 | 5195 ft | 265 kts | 218° |
| 2026-04-29 03:14 | -17.88303 | 177.33920 | 5889 ft | 269 kts | 218° |
| 2026-04-29 03:14 | -17.89791 | 177.32707 | 6609 ft | 272 kts | 218° |
| 2026-04-29 03:14 | -17.91296 | 177.31475 | 7307 ft | 275 kts | 218° |
| 2026-04-29 03:15 | -17.92813 | 177.30236 | 7989 ft | 278 kts | 218° |
| 2026-04-29 03:15 | -17.94349 | 177.28986 | 8687 ft | 280 kts | 218° |
| 2026-04-29 03:15 | -17.95881 | 177.27737 | 9345 ft | 284 kts | 218° |
| 2026-04-29 03:15 | -17.97447 | 177.26457 | 10012 ft | 286 kts | 218° |
| 2026-04-29 03:16 | -17.99042 | 177.25152 | 10433 ft | 299 kts | 218° |
| 2026-04-29 03:16 | -18.00739 | 177.23764 | 10591 ft | 319 kts | 218° |
| 2026-04-29 03:16 | -18.02547 | 177.22285 | 10749 ft | 339 kts | 218° |
| 2026-04-29 03:16 | -18.04448 | 177.20730 | 11074 ft | 352 kts | 218° |
| 2026-04-29 03:17 | -18.06393 | 177.19139 | 11617 ft | 356 kts | 218° |
| 2026-04-29 03:17 | -18.08354 | 177.17533 | 12252 ft | 359 kts | 218° |
| 2026-04-29 03:17 | -18.10330 | 177.15913 | 12866 ft | 361 kts | 218° |
| 2026-04-29 03:17 | -18.12322 | 177.14279 | 13445 ft | 365 kts | 218° |
| 2026-04-29 03:18 | -18.14331 | 177.12632 | 14015 ft | 368 kts | 218° |
| 2026-04-29 03:18 | -18.16272 | 177.10860 | 14558 ft | 371 kts | 227° |
| 2026-04-29 03:18 | -18.17903 | 177.08749 | 15118 ft | 373 kts | 236° |
| 2026-04-29 03:18 | -18.19248 | 177.06397 | 15661 ft | 376 kts | 240° |
| 2026-04-29 03:19 | -18.20526 | 177.04025 | 16175 ft | 379 kts | 240° |
| 2026-04-29 03:19 | -18.21844 | 177.01603 | 16693 ft | 382 kts | 240° |
| 2026-04-29 03:19 | -18.23184 | 176.99170 | 17199 ft | 385 kts | 239° |
| 2026-04-29 03:19 | -18.24780 | 176.96899 | 17680 ft | 389 kts | 228° |
| 2026-04-29 03:20 | -18.26758 | 176.94944 | 18166 ft | 391 kts | 217° |
| 2026-04-29 03:20 | -18.28980 | 176.93276 | 18648 ft | 394 kts | 215° |
| 2026-04-29 03:20 | -18.31252 | 176.91637 | 19106 ft | 397 kts | 214° |
| 2026-04-29 03:20 | -18.33546 | 176.89992 | 19554 ft | 400 kts | 214° |
| 2026-04-29 03:21 | -18.35850 | 176.88335 | 19998 ft | 402 kts | 214° |
| 2026-04-29 03:21 | -18.38137 | 176.86681 | 20428 ft | 405 kts | 215° |
| 2026-04-29 03:21 | -18.40464 | 176.84990 | 20852 ft | 408 kts | 215° |
| 2026-04-29 03:21 | -18.42798 | 176.83286 | 21261 ft | 410 kts | 215° |
| 2026-04-29 03:22 | -18.45151 | 176.81565 | 21661 ft | 413 kts | 215° |
| 2026-04-29 03:22 | -18.47515 | 176.79833 | 22052 ft | 415 kts | 215° |
| 2026-04-29 03:22 | -18.49890 | 176.78091 | 22435 ft | 418 kts | 215° |
| 2026-04-29 03:22 | -18.52288 | 176.76333 | 22807 ft | 420 kts | 215° |
| 2026-04-29 03:23 | -18.54692 | 176.74568 | 23163 ft | 422 kts | 215° |
| 2026-04-29 03:23 | -18.57109 | 176.72794 | 23522 ft | 425 kts | 215° |
| 2026-04-29 03:23 | -18.59538 | 176.71010 | 23866 ft | 427 kts | 215° |
| 2026-04-29 03:23 | -18.61981 | 176.69215 | 24203 ft | 429 kts | 215° |
| 2026-04-29 03:24 | -18.64439 | 176.67409 | 24530 ft | 431 kts | 215° |
| 2026-04-29 03:24 | -18.66906 | 176.65595 | 24849 ft | 433 kts | 215° |
| 2026-04-29 03:24 | -18.69389 | 176.63769 | 25161 ft | 435 kts | 215° |
| 2026-04-29 03:24 | -18.71878 | 176.61938 | 25464 ft | 437 kts | 215° |
| 2026-04-29 03:25 | -18.74380 | 176.60097 | 25759 ft | 439 kts | 215° |
| 2026-04-29 03:25 | -18.76890 | 176.58249 | 26044 ft | 441 kts | 215° |
| 2026-04-29 03:25 | -18.79414 | 176.56390 | 26326 ft | 443 kts | 215° |
| 2026-04-29 03:25 | -18.81949 | 176.54523 | 26605 ft | 445 kts | 215° |
| 2026-04-29 03:26 | -18.84491 | 176.52649 | 26867 ft | 447 kts | 215° |
| 2026-04-29 03:26 | -18.87045 | 176.50766 | 27125 ft | 449 kts | 215° |
| 2026-04-29 03:26 | -18.89610 | 176.48874 | 27383 ft | 450 kts | 215° |
| 2026-04-29 03:26 | -18.92186 | 176.46973 | 27623 ft | 452 kts | 215° |
| 2026-04-29 03:27 | -18.94773 | 176.45063 | 27872 ft | 454 kts | 215° |
| 2026-04-29 03:27 | -18.97357 | 176.43154 | 28191 ft | 453 kts | 215° |
| 2026-04-29 03:27 | -18.99935 | 176.41250 | 28558 ft | 451 kts | 215° |
| 2026-04-29 03:27 | -19.02504 | 176.39352 | 28906 ft | 450 kts | 215° |
| 2026-04-29 03:28 | -19.05072 | 176.37451 | 29201 ft | 450 kts | 215° |
| 2026-04-29 03:28 | -19.06769 | 176.36195 | 29386 ft | 450 kts | 215° |
| 2026-04-29 03:28 | -19.09338 | 176.34291 | 29688 ft | 449 kts | 215° |
| 2026-04-29 03:28 | -19.11896 | 176.32393 | 29997 ft | 448 kts | 215° |
| 2026-04-29 03:29 | -19.14447 | 176.30501 | 30291 ft | 448 kts | 215° |
| 2026-04-29 03:29 | -19.16998 | 176.28607 | 30559 ft | 447 kts | 215° |
| 2026-04-29 03:29 | -19.19546 | 176.26715 | 30826 ft | 447 kts | 215° |
| 2026-04-29 03:29 | -19.22089 | 176.24826 | 31100 ft | 446 kts | 215° |
| 2026-04-29 03:30 | -19.24630 | 176.22938 | 31364 ft | 446 kts | 215° |
| 2026-04-29 03:30 | -19.27165 | 176.21053 | 31611 ft | 445 kts | 215° |
| 2026-04-29 03:30 | -19.29696 | 176.19171 | 31858 ft | 445 kts | 215° |
| 2026-04-29 03:30 | -19.32230 | 176.17285 | 32011 ft | 446 kts | 215° |
| 2026-04-29 03:31 | -19.37352 | 176.13472 | 32007 ft | 453 kts | 215° |
| 2026-04-29 03:31 | -19.42546 | 176.09603 | 32007 ft | 457 kts | 215° |
| 2026-04-29 03:32 | -19.47767 | 176.05710 | 32066 ft | 460 kts | 215° |
| 2026-04-29 03:32 | -19.50378 | 176.03762 | 32378 ft | 456 kts | 215° |
| 2026-04-29 03:32 | -19.52940 | 176.01850 | 32980 ft | 446 kts | 215° |
| 2026-04-29 03:33 | -19.55471 | 175.99960 | 33231 ft | 446 kts | 215° |
| 2026-04-29 03:33 | -19.57977 | 175.98088 | 33315 ft | 448 kts | 215° |
| 2026-04-29 03:33 | -19.63108 | 175.94252 | 33505 ft | 452 kts | 215° |
| 2026-04-29 03:34 | -19.65680 | 175.92329 | 33697 ft | 452 kts | 215° |
| 2026-04-29 03:34 | -19.68248 | 175.90408 | 33928 ft | 450 kts | 215° |
| 2026-04-29 03:34 | -19.70810 | 175.88489 | 34131 ft | 450 kts | 215° |
| 2026-04-29 03:34 | -19.73370 | 175.86573 | 34283 ft | 450 kts | 215° |
| 2026-04-29 03:35 | -19.75928 | 175.84656 | 34433 ft | 450 kts | 215° |
| 2026-04-29 03:35 | -19.78482 | 175.82742 | 34620 ft | 449 kts | 215° |
| 2026-04-29 03:35 | -19.81034 | 175.80828 | 34791 ft | 449 kts | 215° |
| 2026-04-29 03:35 | -19.83547 | 175.78941 | 34948 ft | 448 kts | 215° |
| 2026-04-29 03:36 | -19.86095 | 175.77028 | 35089 ft | 448 kts | 215° |
| 2026-04-29 03:36 | -19.88638 | 175.75117 | 35249 ft | 448 kts | 216° |
| 2026-04-29 03:36 | -19.91184 | 175.73202 | 35401 ft | 447 kts | 216° |
| 2026-04-29 03:36 | -19.93722 | 175.71293 | 35540 ft | 447 kts | 216° |
| 2026-04-29 03:37 | -19.96262 | 175.69382 | 35672 ft | 447 kts | 216° |
| 2026-04-29 03:37 | -19.98800 | 175.67471 | 35810 ft | 447 kts | 216° |
| 2026-04-29 03:37 | -20.01337 | 175.65561 | 35934 ft | 447 kts | 216° |
| 2026-04-29 03:37 | -20.03879 | 175.63646 | 35997 ft | 448 kts | 216° |
| 2026-04-29 03:38 | -20.08980 | 175.59800 | 36009 ft | 451 kts | 216° |
| 2026-04-29 03:38 | -20.14118 | 175.55924 | 36008 ft | 454 kts | 216° |
| 2026-04-29 03:39 | -20.19284 | 175.52023 | 36009 ft | 457 kts | 216° |
| 2026-04-29 03:39 | -20.24478 | 175.48098 | 36006 ft | 457 kts | 216° |
| 2026-04-29 03:40 | -20.29601 | 175.44224 | 35988 ft | 450 kts | 216° |
| 2026-04-29 03:40 | -20.34670 | 175.40387 | 35999 ft | 446 kts | 216° |
| 2026-04-29 03:41 | -20.39713 | 175.36567 | 35999 ft | 444 kts | 216° |
| 2026-04-29 03:41 | -20.44747 | 175.32750 | 36001 ft | 443 kts | 216° |
| 2026-04-29 03:42 | -20.49777 | 175.28933 | 36002 ft | 444 kts | 216° |
| 2026-04-29 03:42 | -20.54815 | 175.25107 | 36003 ft | 445 kts | 216° |
| 2026-04-29 03:43 | -20.59869 | 175.21265 | 36007 ft | 447 kts | 216° |
| 2026-04-29 03:43 | -20.64938 | 175.17409 | 36004 ft | 448 kts | 216° |